Time;durP1;ratioP1;P1;durP2;ratioP2;P2;SDS_P1;SDS_P2;PMS_P1;PMS_P2;Temp;Humidity;BMP_temperature;BMP_pressure;BME280_temperature;BME280_humidity;BME280_pressure;Samples;Min_cycle;Max_cycle;Signal;HPM_P1;HPM_P2
2021/12/28 00:02:15;;;;;;;21.23;11.13;;;4.90;99.90;;;;;;5025069;28;20061;-71
2021/12/28 00:04:40;;;;;;;22.90;11.20;;;4.90;99.90;;;;;;5009413;28;20465;-71
2021/12/28 00:07:06;;;;;;;23.50;11.20;;;4.90;99.90;;;;;;4998621;28;20502;-72
2021/12/28 00:09:31;;;;;;;25.27;11.23;;;5.00;99.90;;;;;;4990684;28;20057;-72
2021/12/28 00:11:57;;;;;;;20.10;10.97;;;4.90;99.90;;;;;;5007972;28;20037;-73
2021/12/28 00:14:29;;;;;;;22.33;11.57;;;4.90;99.90;;;;;;5009152;28;20248;-71
2021/12/28 00:19:39;;;;;;;22.65;11.98;;;5.00;99.90;;;;;;5020668;28;20052;-71
2021/12/28 00:22:04;;;;;;;23.27;12.47;;;5.00;99.90;;;;;;5022586;28;20045;-71
2021/12/28 00:24:30;;;;;;;18.47;10.73;;;5.00;99.90;;;;;;5028533;28;20045;-75
2021/12/28 00:26:56;;;;;;;24.53;12.13;;;5.00;99.90;;;;;;5006105;28;20088;-71
2021/12/28 00:29:22;;;;;;;26.58;12.75;;;5.00;99.90;;;;;;5007426;28;20041;-70
2021/12/28 00:31:47;;;;;;;26.77;13.07;;;5.10;99.90;;;;;;5025117;28;20063;-69
2021/12/28 00:34:13;;;;;;;28.43;13.67;;;5.10;99.90;;;;;;5004409;28;20037;-70
2021/12/28 00:36:39;;;;;;;22.40;13.17;;;5.10;99.90;;;;;;5006980;28;20137;-70
2021/12/28 00:39:05;;;;;;;27.20;13.50;;;5.10;99.90;;;;;;5022455;28;20038;-69
2021/12/28 00:41:31;;;;;;;23.65;13.18;;;5.20;99.90;;;;;;5024459;28;20350;-69
2021/12/28 00:43:56;;;;;;;33.90;14.27;;;5.20;99.90;;;;;;5018256;28;20041;-69
2021/12/28 00:46:22;;;;;;;36.27;14.20;;;5.20;99.90;;;;;;5024052;28;20125;-68
2021/12/28 00:48:48;;;;;;;30.07;13.87;;;5.20;99.90;;;;;;5006727;28;20320;-71
2021/12/28 00:51:13;;;;;;;32.37;14.17;;;5.20;99.90;;;;;;5012198;28;20038;-69
2021/12/28 00:53:39;;;;;;;30.40;15.33;;;5.20;99.90;;;;;;5018861;28;20111;-70
2021/12/28 00:56:05;;;;;;;26.57;14.63;;;5.20;99.90;;;;;;5014105;28;20038;-69
2021/12/28 00:58:31;;;;;;;39.07;16.20;;;5.30;99.90;;;;;;5024404;28;20033;-70
2021/12/28 01:00:57;;;;;;;35.05;16.10;;;5.30;99.90;;;;;;5026661;28;20041;-69
2021/12/28 01:03:23;;;;;;;31.97;15.70;;;5.30;99.90;;;;;;5002539;28;20045;-70
2021/12/28 01:05:49;;;;;;;43.75;18.25;;;5.30;99.90;;;;;;5025479;28;20083;-70
2021/12/28 01:08:15;;;;;;;31.53;15.43;;;5.40;99.90;;;;;;5024824;28;20034;-69
2021/12/28 01:10:49;;;;;;;38.65;17.00;;;5.40;99.90;;;;;;5022199;28;20060;-70
2021/12/28 01:13:15;;;;;;;29.52;15.32;;;5.40;99.90;;;;;;5024536;28;20041;-69
2021/12/28 01:15:42;;;;;;;27.70;14.45;;;5.40;99.90;;;;;;5025597;28;20073;-69
2021/12/28 01:18:07;;;;;;;33.63;16.83;;;5.40;99.90;;;;;;5008008;28;20501;-69
2021/12/28 01:20:33;;;;;;;45.13;17.00;;;5.40;99.90;;;;;;5018865;28;20033;-69
2021/12/28 01:22:59;;;;;;;36.27;17.53;;;5.50;99.90;;;;;;5024397;28;20433;-68
2021/12/28 01:25:25;;;;;;;44.92;18.85;;;5.40;99.90;;;;;;5025825;28;20121;-71
2021/12/28 01:27:51;;;;;;;49.07;17.77;;;5.40;99.90;;;;;;5021518;28;20053;-69
2021/12/28 01:30:20;;;;;;;46.80;17.90;;;5.50;99.90;;;;;;5010792;28;20284;-69
2021/12/28 01:32:46;;;;;;;35.67;17.35;;;5.50;99.90;;;;;;5026604;28;20514;-72
2021/12/28 01:35:14;;;;;;;49.20;17.80;;;5.60;99.90;;;;;;5025472;28;20124;-72
2021/12/28 01:37:40;;;;;;;52.80;19.40;;;5.60;99.90;;;;;;5007751;28;20042;-72
2021/12/28 01:40:09;;;;;;;36.77;18.07;;;5.60;99.90;;;;;;5029998;28;20402;-69
2021/12/28 01:42:56;;;;;;;50.63;18.83;;;5.60;99.90;;;;;;5025637;28;20060;-69
2021/12/28 01:45:31;;;;;;;61.30;19.45;;;5.70;99.90;;;;;;5025110;28;20044;-69
2021/12/28 01:47:57;;;;;;;62.85;20.05;;;5.70;99.90;;;;;;5020051;28;20521;-70
2021/12/28 01:50:22;;;;;;;116.30;24.70;;;5.70;99.90;;;;;;5020667;28;20124;-69
2021/12/28 01:52:48;;;;;;;67.53;20.47;;;5.70;99.90;;;;;;5025397;28;20034;-69
2021/12/28 01:55:14;;;;;;;117.07;25.23;;;5.70;99.90;;;;;;5023347;28;20032;-70
2021/12/28 01:57:39;;;;;;;48.50;18.30;;;5.80;99.90;;;;;;5024299;28;20040;-70
2021/12/28 02:00:06;;;;;;;48.97;19.57;;;5.80;99.90;;;;;;5023994;28;20042;-69
2021/12/28 02:02:31;;;;;;;59.72;19.55;;;5.80;99.90;;;;;;5008266;28;20046;-71
2021/12/28 02:04:57;;;;;;;60.10;20.43;;;5.80;99.90;;;;;;5007956;28;20181;-70
2021/12/28 02:07:23;;;;;;;49.53;18.83;;;5.80;99.90;;;;;;5023000;28;20035;-69
2021/12/28 02:09:49;;;;;;;55.57;19.03;;;5.90;99.90;;;;;;5026064;28;20065;-70
2021/12/28 02:12:14;;;;;;;77.68;22.08;;;5.90;99.90;;;;;;5008450;28;20128;-70
2021/12/28 02:14:44;;;;;;;46.17;20.37;;;5.90;99.90;;;;;;5024454;28;20176;-70
2021/12/28 02:17:10;;;;;;;160.98;29.23;;;5.90;99.90;;;;;;5003312;28;20033;-71
2021/12/28 02:19:36;;;;;;;118.72;26.13;;;5.90;99.90;;;;;;5024250;28;20053;-70
2021/12/28 02:22:02;;;;;;;74.60;20.57;;;5.90;99.90;;;;;;5005643;28;20440;-69
2021/12/28 02:24:27;;;;;;;78.97;21.23;;;5.90;99.90;;;;;;4994498;28;23181;-71
2021/12/28 02:26:53;;;;;;;129.77;24.40;;;6.00;99.90;;;;;;5017809;28;20478;-69
2021/12/28 02:29:19;;;;;;;43.13;18.27;;;6.00;99.90;;;;;;5026421;28;20374;-69
2021/12/28 02:31:46;;;;;;;67.43;20.17;;;6.00;99.90;;;;;;5023914;28;20037;-69
2021/12/28 02:34:12;;;;;;;86.63;20.70;;;6.00;99.90;;;;;;5021891;28;20037;-71
2021/12/28 02:36:38;;;;;;;70.60;19.37;;;6.10;99.90;;;;;;5022244;28;20509;-71
2021/12/28 02:39:03;;;;;;;148.40;27.00;;;6.10;99.90;;;;;;5023602;28;20061;-70
2021/12/28 02:41:29;;;;;;;95.63;20.90;;;6.10;99.90;;;;;;5026846;28;20041;-69
2021/12/28 02:44:03;;;;;;;86.93;19.73;;;6.10;99.90;;;;;;5024580;28;20076;-69
2021/12/28 02:46:29;;;;;;;81.40;20.58;;;6.20;99.90;;;;;;5009874;28;20465;-71
2021/12/28 02:48:54;;;;;;;75.03;20.13;;;6.20;99.90;;;;;;5009417;28;20065;-70
2021/12/28 02:51:20;;;;;;;63.60;18.53;;;6.20;99.90;;;;;;5021243;28;20562;-71
2021/12/28 02:53:47;;;;;;;155.97;25.80;;;6.20;99.90;;;;;;4996961;28;20080;-69
2021/12/28 02:56:14;;;;;;;58.28;18.90;;;6.20;99.90;;;;;;5011847;28;20426;-69
2021/12/28 02:58:42;;;;;;;73.38;20.48;;;6.20;99.90;;;;;;5022884;28;20075;-69
2021/12/28 03:01:21;;;;;;;84.85;21.08;;;6.20;99.90;;;;;;5009571;28;20058;-69
2021/12/28 03:03:51;;;;;;;121.05;24.70;;;6.20;99.90;;;;;;5028877;28;20091;-69
2021/12/28 03:06:18;;;;;;;79.55;19.83;;;6.20;99.90;;;;;;5011001;28;20120;-69
2021/12/28 03:08:48;;;;;;;280.15;34.35;;;6.30;99.90;;;;;;5009808;28;20192;-69
2021/12/28 03:11:15;;;;;;;51.53;19.70;;;6.30;99.90;;;;;;5028330;28;20112;-70
2021/12/28 03:13:47;;;;;;;140.10;26.05;;;6.30;99.90;;;;;;5023867;28;20060;-69
2021/12/28 03:16:13;;;;;;;69.20;21.58;;;6.30;99.90;;;;;;5002861;28;20073;-70
2021/12/28 03:18:40;;;;;;;90.65;23.58;;;6.30;99.90;;;;;;5010274;28;20046;-70
2021/12/28 03:21:10;;;;;;;86.03;21.88;;;6.30;99.90;;;;;;5024003;28;20077;-70
2021/12/28 03:23:36;;;;;;;93.00;20.77;;;6.30;99.90;;;;;;5029210;28;20037;-69
2021/12/28 03:26:03;;;;;;;53.53;19.38;;;6.40;99.90;;;;;;5024018;28;20516;-70
2021/12/28 03:31:04;;;;;;;61.40;18.50;;;6.40;99.90;;;;;;5040989;28;20470;-68
2021/12/28 03:33:32;;;;;;;70.15;20.15;;;6.40;99.90;;;;;;5045165;28;20040;-68
2021/12/28 03:35:58;;;;;;;61.58;19.15;;;6.50;99.90;;;;;;5042015;28;20080;-68
2021/12/28 03:38:24;;;;;;;63.83;21.07;;;6.40;99.90;;;;;;5029333;28;20076;-68
2021/12/28 03:40:52;;;;;;;48.17;17.27;;;6.40;99.90;;;;;;5000967;28;20292;-68
2021/12/28 03:43:18;;;;;;;71.07;19.95;;;6.50;99.90;;;;;;5005473;28;20116;-68
2021/12/28 03:45:44;;;;;;;52.10;19.05;;;6.50;99.90;;;;;;5026763;28;20043;-68
2021/12/28 03:48:11;;;;;;;67.57;19.58;;;6.50;99.90;;;;;;5004570;28;20045;-68
2021/12/28 03:50:36;;;;;;;69.55;18.63;;;6.50;99.90;;;;;;5011681;28;20354;-68
2021/12/28 03:53:05;;;;;;;68.07;18.40;;;6.50;99.90;;;;;;5008985;28;20049;-68
2021/12/28 03:55:31;;;;;;;75.63;20.38;;;6.50;99.90;;;;;;5023031;28;20037;-68
2021/12/28 03:57:59;;;;;;;48.07;17.57;;;6.50;99.90;;;;;;5025294;28;20037;-69
2021/12/28 04:00:29;;;;;;;72.63;20.75;;;6.50;99.90;;;;;;5022798;28;20041;-66
2021/12/28 04:02:55;;;;;;;56.08;19.02;;;6.50;99.90;;;;;;4994379;28;20059;-68
2021/12/28 04:05:21;;;;;;;60.97;18.73;;;6.60;99.90;;;;;;5022789;28;20114;-68
2021/12/28 04:07:47;;;;;;;59.47;17.48;;;6.60;99.90;;;;;;5008264;28;20507;-68
2021/12/28 04:10:15;;;;;;;;;;;6.60;99.90;;;;;;4991514;28;20033;-68
2021/12/28 04:12:41;;;;;;;63.08;17.98;;;6.60;99.90;;;;;;5006239;28;19921;-68
2021/12/28 04:15:10;;;;;;;54.80;17.38;;;6.60;99.90;;;;;;5024472;28;20172;-68
2021/12/28 04:17:37;;;;;;;59.90;18.80;;;6.60;99.90;;;;;;5001442;28;20038;-67
2021/12/28 04:20:13;;;;;;;51.13;16.33;;;6.70;99.90;;;;;;5019406;28;20041;-68
2021/12/28 04:22:39;;;;;;;54.83;19.77;;;6.70;99.90;;;;;;5004027;28;20389;-68
2021/12/28 04:25:06;;;;;;;68.47;18.02;;;6.70;99.90;;;;;;4988810;28;20370;-69
2021/12/28 04:27:32;;;;;;;65.03;19.25;;;6.70;99.90;;;;;;5016281;28;20037;-68
2021/12/28 04:29:58;;;;;;;52.53;18.43;;;6.70;99.90;;;;;;5022994;28;20385;-68
2021/12/28 04:32:24;;;;;;;59.77;17.93;;;6.70;99.90;;;;;;5024806;28;20491;-68
2021/12/28 04:34:50;;;;;;;62.90;19.13;;;6.70;99.90;;;;;;5009568;28;20374;-68
2021/12/28 04:37:15;;;;;;;47.47;16.75;;;6.80;99.90;;;;;;5020698;28;20048;-68
2021/12/28 04:39:41;;;;;;;48.17;16.60;;;6.80;99.90;;;;;;5019870;28;20112;-68
2021/12/28 04:42:07;;;;;;;50.92;17.50;;;6.80;99.90;;;;;;5021565;28;20550;-68
2021/12/28 04:44:33;;;;;;;57.90;16.07;;;6.70;99.90;;;;;;5010487;28;20083;-68
2021/12/28 04:46:59;;;;;;;49.83;16.65;;;6.80;99.90;;;;;;5013685;28;20033;-68
2021/12/28 04:49:27;;;;;;;63.47;17.93;;;6.80;99.90;;;;;;5015261;28;20041;-68
2021/12/28 04:51:53;;;;;;;51.28;17.30;;;6.70;99.90;;;;;;5009042;28;20120;-68
2021/12/28 04:54:19;;;;;;;54.07;16.90;;;6.80;99.90;;;;;;5022138;28;20128;-68
2021/12/28 04:56:46;;;;;;;56.38;18.05;;;6.80;99.90;;;;;;5017762;28;20350;-68
2021/12/28 04:59:15;;;;;;;48.30;16.13;;;6.70;99.90;;;;;;5023219;28;20041;-68
2021/12/28 05:01:41;;;;;;;49.78;17.08;;;6.70;99.90;;;;;;5023172;28;20140;-68
2021/12/28 05:04:07;;;;;;;62.38;16.13;;;6.70;99.90;;;;;;5021434;28;20136;-68
2021/12/28 05:06:35;;;;;;;51.03;16.23;;;6.70;99.90;;;;;;5003617;28;20053;-68
2021/12/28 05:09:06;;;;;;;48.08;15.60;;;6.70;99.90;;;;;;5001901;28;20042;-68
2021/12/28 05:11:33;;;;;;;43.53;14.63;;;6.70;99.90;;;;;;5024040;28;20378;-68
2021/12/28 05:13:59;;;;;;;;;;;6.80;99.90;;;;;;5005903;28;20069;-68
2021/12/28 05:16:28;;;;;;;45.92;14.98;;;6.80;99.90;;;;;;5023508;28;19929;-68
2021/12/28 05:18:54;;;;;;;55.88;15.43;;;6.80;99.90;;;;;;5006409;28;20045;-68
2021/12/28 05:21:20;;;;;;;31.30;14.35;;;6.70;99.90;;;;;;5005929;28;20055;-68
2021/12/28 05:23:46;;;;;;;45.90;14.65;;;6.70;99.90;;;;;;5025502;28;20048;-68
2021/12/28 05:26:11;;;;;;;37.70;13.73;;;6.70;99.90;;;;;;5021995;28;20132;-68
2021/12/28 05:28:37;;;;;;;46.10;14.53;;;6.70;99.90;;;;;;5021529;28;20118;-68
2021/12/28 05:31:03;;;;;;;34.60;12.67;;;6.70;99.90;;;;;;5010497;28;20420;-68
2021/12/28 05:33:28;;;;;;;37.33;13.27;;;6.70;99.90;;;;;;5018761;28;20451;-67
2021/12/28 05:35:54;;;;;;;40.60;13.97;;;6.70;99.90;;;;;;5022855;28;20124;-67
2021/12/28 05:38:20;;;;;;;47.47;14.10;;;6.70;99.90;;;;;;5022595;28;20033;-67
2021/12/28 05:40:46;;;;;;;36.73;14.47;;;6.60;99.90;;;;;;5023379;28;20355;-69
2021/12/28 05:43:13;;;;;;;39.45;15.88;;;6.60;99.90;;;;;;5007427;28;20044;-69
2021/12/28 05:45:40;;;;;;;44.80;14.98;;;6.60;99.90;;;;;;5011350;28;20045;-68
2021/12/28 05:48:05;;;;;;;39.20;13.52;;;6.60;99.90;;;;;;5008245;28;20397;-69
2021/12/28 05:50:31;;;;;;;43.30;14.70;;;6.60;99.90;;;;;;5005780;28;20045;-68
2021/12/28 05:52:57;;;;;;;43.77;15.03;;;6.60;99.90;;;;;;5022148;28;20107;-69
2021/12/28 05:55:22;;;;;;;53.30;15.60;;;6.60;99.90;;;;;;5024388;28;20103;-69
2021/12/28 05:57:48;;;;;;;36.83;14.63;;;6.60;99.90;;;;;;5022242;28;20042;-68
2021/12/28 06:00:14;;;;;;;40.70;15.03;;;6.60;99.90;;;;;;5024586;28;20109;-68
2021/12/28 06:02:39;;;;;;;41.03;15.07;;;6.60;99.90;;;;;;5022957;28;20056;-68
2021/12/28 06:05:06;;;;;;;45.10;14.97;;;6.60;99.90;;;;;;5027545;28;20033;-69
2021/12/28 06:07:31;;;;;;;39.75;15.93;;;6.60;99.90;;;;;;4999435;28;20110;-68
2021/12/28 06:09:57;;;;;;;37.07;15.47;;;6.60;99.90;;;;;;5027508;28;20037;-68
2021/12/28 06:12:24;;;;;;;37.95;14.48;;;6.60;99.90;;;;;;5008962;28;20470;-68
2021/12/28 06:14:50;;;;;;;;;;;6.60;99.90;;;;;;5026541;28;20041;-68
2021/12/28 06:17:16;;;;;;;46.15;15.43;;;6.60;99.90;;;;;;5023703;28;19917;-68
2021/12/28 06:19:41;;;;;;;40.33;16.30;;;6.60;99.90;;;;;;5024756;28;20382;-69
2021/12/28 06:22:08;;;;;;;34.97;15.00;;;6.60;99.90;;;;;;5025755;28;20043;-68
2021/12/28 06:24:33;;;;;;;42.75;15.23;;;6.60;99.90;;;;;;5023952;28;20443;-68
2021/12/28 06:26:59;;;;;;;40.77;16.10;;;6.60;99.90;;;;;;5002609;28;20033;-68
2021/12/28 06:29:24;;;;;;;35.63;14.53;;;6.60;99.90;;;;;;5020987;28;20058;-68
2021/12/28 06:31:50;;;;;;;36.60;13.03;;;6.60;99.90;;;;;;5008390;28;20056;-68
2021/12/28 06:34:16;;;;;;;32.33;13.47;;;6.50;99.90;;;;;;5025398;28;20495;-68
2021/12/28 06:36:43;;;;;;;36.77;13.33;;;6.50;99.90;;;;;;5023638;28;20030;-68
2021/12/28 06:39:09;;;;;;;34.50;12.85;;;6.50;99.90;;;;;;5023296;28;20477;-68
2021/12/28 06:41:34;;;;;;;29.33;11.67;;;6.60;99.90;;;;;;5008784;28;20045;-68
2021/12/28 06:44:00;;;;;;;45.00;14.73;;;6.50;99.90;;;;;;5019932;28;20043;-68
2021/12/28 06:46:25;;;;;;;34.50;12.10;;;6.50;99.90;;;;;;5025943;28;20342;-68
2021/12/28 06:48:51;;;;;;;29.80;11.83;;;6.60;99.90;;;;;;5015507;28;20034;-69
2021/12/28 06:51:17;;;;;;;26.20;10.23;;;6.60;99.90;;;;;;5021596;28;20079;-68
2021/12/28 06:53:42;;;;;;;27.27;11.17;;;6.60;99.90;;;;;;5026025;28;20467;-68
2021/12/28 06:56:08;;;;;;;31.40;10.77;;;6.60;99.90;;;;;;5009546;28;20087;-68
2021/12/28 06:58:34;;;;;;;36.47;9.93;;;6.60;99.90;;;;;;5025434;28;20045;-68
2021/12/28 07:01:00;;;;;;;27.03;11.43;;;6.60;99.90;;;;;;5024521;28;20038;-68
2021/12/28 07:03:26;;;;;;;30.20;10.32;;;6.60;99.90;;;;;;5023947;28;20605;-69
2021/12/28 07:05:51;;;;;;;30.17;11.23;;;6.60;99.90;;;;;;5023892;28;20273;-68
2021/12/28 07:08:17;;;;;;;29.20;9.83;;;6.60;99.90;;;;;;5008886;28;20042;-69
2021/12/28 07:10:43;;;;;;;26.70;9.73;;;6.60;99.90;;;;;;5026574;28;20245;-68
2021/12/28 07:13:09;;;;;;;29.48;10.52;;;6.60;99.90;;;;;;5027273;28;20396;-71
2021/12/28 07:15:35;;;;;;;22.35;10.30;;;6.60;99.90;;;;;;5005698;28;20124;-71
2021/12/28 07:18:01;;;;;;;29.40;11.93;;;6.60;99.90;;;;;;5008762;28;20539;-70
2021/12/28 07:20:27;;;;;;;29.30;10.37;;;6.60;99.90;;;;;;5020878;28;20132;-70
2021/12/28 07:22:53;;;;;;;26.42;10.25;;;6.60;99.90;;;;;;5021537;28;20053;-70
2021/12/28 07:25:18;;;;;;;31.10;10.13;;;6.60;99.90;;;;;;5006275;28;20485;-68
2021/12/28 07:27:44;;;;;;;32.80;9.60;;;6.60;99.90;;;;;;5008135;28;20038;-69
2021/12/28 07:30:13;;;;;;;28.70;9.30;;;6.60;99.90;;;;;;5025700;28;20038;-69
2021/12/28 07:32:40;;;;;;;28.85;9.52;;;6.60;99.90;;;;;;5017423;28;20038;-73
2021/12/28 07:35:08;;;;;;;30.55;9.52;;;6.60;99.90;;;;;;5005189;28;20041;-70
2021/12/28 07:37:33;;;;;;;22.50;9.98;;;6.60;99.90;;;;;;5026908;28;20104;-69
2021/12/28 07:39:59;;;;;;;22.63;8.33;;;6.60;99.90;;;;;;5024642;28;20073;-71
2021/12/28 07:42:25;;;;;;;28.53;8.67;;;6.60;99.90;;;;;;5021177;28;20412;-70
2021/12/28 07:44:51;;;;;;;29.42;8.95;;;6.70;99.90;;;;;;5027198;28;20049;-76
2021/12/28 07:47:17;;;;;;;23.00;8.27;;;6.70;99.90;;;;;;5008172;28;20033;-69
2021/12/28 07:49:43;;;;;;;16.77;8.00;;;6.70;99.90;;;;;;5006810;28;20373;-74
2021/12/28 07:52:09;;;;;;;28.77;8.43;;;6.70;99.90;;;;;;5008721;28;20055;-72
2021/12/28 07:54:34;;;;;;;23.83;7.50;;;6.70;99.90;;;;;;5002943;28;20452;-72
2021/12/28 07:57:00;;;;;;;31.27;8.20;;;6.70;99.90;;;;;;5008176;28;20380;-73
2021/12/28 07:59:26;;;;;;;24.53;8.63;;;6.80;99.90;;;;;;5006973;28;20466;-74
2021/12/28 08:01:51;;;;;;;22.33;8.37;;;6.80;99.90;;;;;;5004000;28;20128;-76
2021/12/28 08:04:17;;;;;;;17.40;8.30;;;6.80;99.90;;;;;;5005615;28;20120;-71
2021/12/28 08:06:42;;;;;;;17.90;7.40;;;6.80;99.90;;;;;;5021240;28;20037;-69
2021/12/28 08:09:08;;;;;;;20.73;8.40;;;6.80;99.90;;;;;;4991401;28;20056;-77
2021/12/28 08:11:34;;;;;;;18.47;7.70;;;6.80;99.90;;;;;;5009932;28;20056;-70
2021/12/28 08:14:01;;;;;;;26.20;8.43;;;6.80;99.90;;;;;;5018994;28;20029;-69
2021/12/28 08:16:27;;;;;;;28.48;8.57;;;6.80;99.90;;;;;;5008446;28;20132;-68
2021/12/28 08:18:52;;;;;;;20.53;7.97;;;6.90;99.90;;;;;;5022534;28;20474;-69
2021/12/28 08:21:18;;;;;;;21.50;6.87;;;6.90;99.90;;;;;;5022928;28;20037;-68
2021/12/28 08:23:44;;;;;;;21.00;7.67;;;6.90;99.90;;;;;;5022466;28;20034;-68
2021/12/28 08:26:09;;;;;;;26.07;7.77;;;6.90;99.90;;;;;;4995682;28;20057;-68
2021/12/28 08:28:35;;;;;;;21.97;7.60;;;7.00;99.90;;;;;;5013962;28;20439;-75
2021/12/28 08:31:01;;;;;;;15.23;7.73;;;6.90;99.90;;;;;;5001521;28;20446;-70
2021/12/28 08:33:28;;;;;;;20.03;7.03;;;7.00;99.90;;;;;;5025299;28;20478;-68
2021/12/28 08:35:54;;;;;;;25.38;5.95;;;7.00;99.90;;;;;;5003670;28;20034;-68
2021/12/28 08:38:19;;;;;;;20.98;6.75;;;7.00;99.90;;;;;;5015322;28;20072;-68
2021/12/28 08:40:45;;;;;;;19.67;6.63;;;7.00;99.90;;;;;;5023150;28;20126;-68
2021/12/28 08:43:12;;;;;;;16.33;7.00;;;7.10;99.90;;;;;;5024654;28;20044;-68
2021/12/28 08:45:38;;;;;;;;;;;7.10;99.90;;;;;;5015707;28;20036;-68
2021/12/28 08:48:05;;;;;;;15.10;5.93;;;7.10;99.90;;;;;;5006742;28;19924;-68
2021/12/28 08:50:32;;;;;;;19.20;6.85;;;7.10;99.90;;;;;;5022609;28;20459;-68
2021/12/28 08:52:57;;;;;;;24.40;6.80;;;7.10;99.90;;;;;;5025755;28;20033;-68
2021/12/28 08:55:24;;;;;;;20.30;6.63;;;7.20;99.90;;;;;;5025684;28;20086;-68
2021/12/28 08:57:51;;;;;;;14.07;6.85;;;7.20;99.90;;;;;;5022365;28;20041;-68
2021/12/28 09:00:21;;;;;;;26.75;6.60;;;7.20;99.90;;;;;;5024057;28;20037;-69
2021/12/28 09:02:47;;;;;;;17.65;7.25;;;7.30;99.90;;;;;;5024342;28;20490;-69
2021/12/28 09:05:13;;;;;;;20.20;7.47;;;7.30;99.90;;;;;;5023447;28;20037;-68
2021/12/28 09:07:39;;;;;;;20.40;7.38;;;7.30;99.90;;;;;;5025225;28;20105;-68
2021/12/28 09:10:05;;;;;;;23.30;7.82;;;7.40;99.90;;;;;;5024331;28;20409;-68
2021/12/28 09:12:31;;;;;;;20.63;8.75;;;7.40;99.90;;;;;;5024386;28;20315;-68
2021/12/28 09:14:56;;;;;;;23.03;6.67;;;7.40;99.90;;;;;;5026126;28;20483;-68
2021/12/28 09:17:22;;;;;;;25.47;7.80;;;7.40;99.90;;;;;;5007438;28;20046;-68
2021/12/28 09:19:48;;;;;;;26.07;7.37;;;7.40;99.90;;;;;;5025554;28;20044;-68
2021/12/28 09:22:13;;;;;;;24.33;7.70;;;7.40;99.90;;;;;;5019488;28;20373;-68
2021/12/28 09:24:39;;;;;;;26.57;8.07;;;7.40;99.90;;;;;;5024310;28;20431;-68
2021/12/28 09:27:06;;;;;;;22.52;7.53;;;7.40;99.90;;;;;;5014985;28;20128;-68
2021/12/28 09:32:00;;;;;;;19.10;7.85;;;7.40;99.90;;;;;;5020756;28;20045;-67
2021/12/28 09:34:27;;;;;;;27.53;8.10;;;7.40;99.90;;;;;;4991144;28;20464;-67
2021/12/28 09:36:54;;;;;;;23.83;7.72;;;7.40;99.90;;;;;;5000629;28;20042;-67
2021/12/28 09:39:22;;;;;;;22.92;7.55;;;7.40;99.90;;;;;;5004197;28;20041;-67
2021/12/28 09:41:54;;;;;;;21.65;7.53;;;7.40;99.90;;;;;;5026374;28;20513;-68
2021/12/28 09:44:20;;;;;;;20.23;6.97;;;7.50;99.90;;;;;;5006955;28;20038;-67
2021/12/28 09:46:46;;;;;;;28.30;9.27;;;7.50;99.90;;;;;;4999787;28;20069;-67
2021/12/28 09:49:12;;;;;;;18.93;8.07;;;7.50;99.90;;;;;;5028870;28;20076;-67
2021/12/28 09:51:37;;;;;;;21.60;8.20;;;7.50;99.90;;;;;;5003175;28;20492;-67
2021/12/28 09:54:03;;;;;;;22.57;7.30;;;7.60;99.90;;;;;;5021134;28;20080;-67
2021/12/28 09:56:29;;;;;;;23.13;8.40;;;7.60;99.90;;;;;;4995789;28;20180;-67
2021/12/28 09:58:54;;;;;;;21.13;7.63;;;7.60;99.90;;;;;;5004727;28;20513;-67
2021/12/28 10:01:20;;;;;;;14.90;7.57;;;7.60;99.90;;;;;;5005049;28;20037;-67
2021/12/28 10:03:47;;;;;;;21.57;6.90;;;7.60;99.90;;;;;;4999874;28;20526;-67
2021/12/28 10:06:25;;;;;;;18.92;6.88;;;7.60;99.90;;;;;;5022768;28;20168;-67
2021/12/28 10:09:05;;;;;;;23.02;8.20;;;7.60;99.90;;;;;;5021518;28;20065;-67
2021/12/28 10:11:33;;;;;;;17.55;8.40;;;7.60;99.90;;;;;;5003101;28;20037;-67
2021/12/28 10:14:20;;;;;;;25.70;8.32;;;7.60;99.90;;;;;;5025823;28;20040;-68
2021/12/28 10:17:01;;;;;;;28.17;9.07;;;7.60;99.90;;;;;;5004507;28;20490;-67
2021/12/28 10:19:40;;;;;;;22.00;8.77;;;7.60;99.90;;;;;;4997123;28;20049;-67
2021/12/28 10:22:38;;;;;;;25.98;8.52;;;7.60;99.90;;;;;;4985630;28;20037;-70
2021/12/28 10:25:03;;;;;;;21.23;8.68;;;7.60;99.90;;;;;;5018802;28;20068;-67
2021/12/28 10:27:31;;;;;;;17.23;7.93;;;7.60;99.90;;;;;;4978677;28;20146;-67
2021/12/28 10:30:08;;;;;;;25.33;8.85;;;7.70;99.90;;;;;;5017928;28;20049;-67
2021/12/28 10:32:34;;;;;;;18.38;8.27;;;7.60;99.90;;;;;;5001566;28;20112;-67
2021/12/28 10:35:03;;;;;;;18.33;8.40;;;7.70;99.90;;;;;;4996552;28;20128;-67
2021/12/28 10:37:35;;;;;;;19.83;7.95;;;7.70;99.90;;;;;;4997694;28;20073;-67
2021/12/28 10:40:02;;;;;;;24.27;8.35;;;7.70;99.90;;;;;;5013368;28;20056;-67
2021/12/28 10:42:53;;;;;;;18.20;7.82;;;7.70;99.90;;;;;;4996445;28;20680;-67
2021/12/28 10:45:20;;;;;;;15.07;7.45;;;7.70;99.90;;;;;;5006070;28;20087;-67
2021/12/28 10:47:48;;;;;;;16.80;7.28;;;7.70;99.90;;;;;;4982662;28;20053;-68
2021/12/28 10:50:41;;;;;;;21.33;6.82;;;7.80;99.90;;;;;;5019828;28;20096;-67
2021/12/28 10:53:32;;;;;;;14.90;6.65;;;7.80;99.90;;;;;;5013829;28;20390;-67
2021/12/28 10:55:59;;;;;;;13.48;6.30;;;7.80;99.90;;;;;;4996375;28;20069;-67
2021/12/28 10:58:30;;;;;;;11.07;7.13;;;7.80;99.90;;;;;;4994363;28;20054;-68
2021/12/28 11:01:04;;;;;;;14.20;6.50;;;7.80;99.90;;;;;;5001738;28;20050;-67
2021/12/28 11:03:34;;;;;;;13.00;6.53;;;7.80;99.90;;;;;;4980503;28;20112;-67
2021/12/28 11:06:05;;;;;;;9.98;6.50;;;7.90;99.90;;;;;;5003121;28;20063;-67
2021/12/28 11:08:31;;;;;;;11.00;6.38;;;7.90;99.90;;;;;;4992307;28;20042;-67
2021/12/28 11:11:00;;;;;;;10.05;5.63;;;7.90;99.90;;;;;;4988890;28;20636;-67
2021/12/28 11:13:29;;;;;;;11.18;5.80;;;7.90;99.90;;;;;;5009229;28;20034;-67
2021/12/28 11:15:56;;;;;;;13.88;6.40;;;7.90;99.90;;;;;;4992329;28;20034;-67
2021/12/28 11:18:32;;;;;;;13.45;6.25;;;7.90;99.90;;;;;;4991490;28;20034;-67
2021/12/28 11:21:11;;;;;;;12.50;6.30;;;8.00;99.90;;;;;;5024085;28;20116;-68
2021/12/28 11:23:37;;;;;;;12.15;5.97;;;8.00;99.90;;;;;;4991295;28;20401;-67
2021/12/28 11:26:17;;;;;;;15.07;5.60;;;8.00;99.90;;;;;;5003503;28;20049;-67
2021/12/28 11:28:52;;;;;;;9.02;5.60;;;8.00;99.90;;;;;;5016887;28;20034;-67
2021/12/28 11:31:21;;;;;;;10.77;5.72;;;8.00;99.90;;;;;;5023648;28;20193;-67
2021/12/28 11:34:06;;;;;;;11.88;5.90;;;8.00;99.90;;;;;;5008014;28;20498;-68
2021/12/28 11:36:37;;;;;;;9.77;5.90;;;8.00;99.90;;;;;;5000283;28;20132;-67
2021/12/28 11:39:06;;;;;;;8.60;5.35;;;8.10;99.90;;;;;;5004068;28;20046;-67
2021/12/28 11:41:32;;;;;;;11.18;5.00;;;8.10;99.90;;;;;;5008295;28;20041;-67
2021/12/28 11:43:58;;;;;;;8.80;4.93;;;8.10;99.90;;;;;;4998321;28;20466;-67
2021/12/28 11:46:24;;;;;;;7.68;4.70;;;8.10;99.90;;;;;;5015173;28;20497;-68
2021/12/28 11:48:51;;;;;;;8.00;4.75;;;8.10;99.90;;;;;;4994547;28;20605;-68
2021/12/28 11:51:17;;;;;;;8.77;4.63;;;8.10;99.90;;;;;;4990400;28;20056;-68
2021/12/28 11:53:46;;;;;;;10.07;4.30;;;8.10;99.90;;;;;;5001162;28;20261;-67
2021/12/28 11:56:13;;;;;;;7.55;5.05;;;8.10;99.90;;;;;;5008592;28;20076;-68
2021/12/28 11:58:56;;;;;;;10.48;4.35;;;8.20;99.90;;;;;;4988587;28;20053;-67
2021/12/28 12:02:01;;;;;;;6.28;3.95;;;8.20;99.90;;;;;;5003281;28;20107;-67
2021/12/28 12:04:32;;;;;;;8.23;4.30;;;8.20;99.90;;;;;;4938994;28;20061;-67
2021/12/28 12:07:12;;;;;;;5.20;3.60;;;8.20;99.90;;;;;;4956908;28;20150;-68
2021/12/28 12:09:50;;;;;;;9.38;4.70;;;8.20;99.90;;;;;;4980095;28;20062;-67
2021/12/28 12:12:27;;;;;;;9.13;4.75;;;8.20;99.90;;;;;;4980606;28;20041;-67
2021/12/28 12:15:01;;;;;;;6.75;4.05;;;8.20;99.90;;;;;;4992613;28;20124;-67
2021/12/28 12:17:39;;;;;;;7.88;4.13;;;8.20;99.90;;;;;;5014297;28;20304;-67
2021/12/28 12:20:09;;;;;;;7.20;3.95;;;8.20;99.90;;;;;;4994370;28;20053;-67
2021/12/28 12:22:37;;;;;;;7.53;3.75;;;8.20;99.90;;;;;;5020963;28;20121;-67
2021/12/28 12:25:10;;;;;;;6.97;3.47;;;8.30;99.90;;;;;;5013418;28;20038;-68
2021/12/28 12:28:05;;;;;;;6.80;4.18;;;8.30;99.90;;;;;;5010806;28;20049;-68
2021/12/28 12:30:33;;;;;;;7.05;3.75;;;8.30;99.90;;;;;;4983574;28;20494;-67
2021/12/28 12:33:07;;;;;;;6.90;4.05;;;8.30;99.90;;;;;;5017966;28;20398;-67
2021/12/28 12:35:35;;;;;;;7.57;3.78;;;8.30;99.90;;;;;;4999873;28;20386;-67
2021/12/28 12:38:27;;;;;;;6.80;3.72;;;8.30;99.90;;;;;;5013488;28;20033;-67
2021/12/28 12:41:00;;;;;;;7.90;4.40;;;8.30;99.90;;;;;;4996091;28;20041;-67
2021/12/28 12:43:35;;;;;;;8.07;4.15;;;8.40;99.90;;;;;;4993237;28;20038;-67
2021/12/28 12:46:12;;;;;;;5.55;3.58;;;8.40;99.90;;;;;;4987252;28;20038;-67
2021/12/28 12:48:38;;;;;;;6.03;3.78;;;8.40;99.90;;;;;;4982188;28;20056;-67
2021/12/28 12:51:19;;;;;;;6.65;3.92;;;8.40;99.90;;;;;;5012797;28;20405;-67
2021/12/28 12:53:47;;;;;;;9.43;4.57;;;8.40;99.90;;;;;;5000844;28;20037;-67
2021/12/28 12:56:14;;;;;;;9.80;4.30;;;8.40;99.90;;;;;;4999519;28;20080;-67